No particular awareness of the weather is required.    There are no Weather-warnings
 Banner
iom-flag.gif  iom-flag.gif


Ballaugh webcam more information Ballaugh webcam


Thunder radar more information blitzortung!


Rain radar more information rain snow radar


Visit our other weather sites:

Template documentation
and downloads

And another site



Nearby METAR Reports

   
EGNS - Isle Of Man/Rona, United Kingdom
Distance from station: SSW 16 mi
Updated: 24-03-2019 19:20
Mostly Cloudy  
Mostly Cloudy  
   Wind: WNW 20.7 mph
Wind: WNW 20.7 mph
Temperature: 8°C
Wind Chill: 4°C
Dew Point: 5°C
Humidity: 82%
Barometer: 1028 hPa
Clouds: Mostly Cloudy
Visibility: More than 6 mi
Cloud details: Few Clouds 2200 ft,
Mostly Cloudy 4500 ft
EGNS 241920Z 30018KT 270V340 9999 FEW022 BKN045 08/05 Q1028 TEMPO 8000 -SHRA
EGAC - Belfast Harbour, United Kingdom
Distance from station: WNW 57 mi
Updated: 24-03-2019 19:20
Light Rain, Mostly Cloudy  
Light Rain, Mostly Cloudy  
   Wind: WNW 11.5 mph
Wind: WNW 11.5 mph
Temperature: 8°C
Wind Chill: 5°C
Dew Point: 5°C
Humidity: 82%
Barometer: 1029 hPa
Clouds: Mostly Cloudy
Visibility: More than 6 mi
Cloud details: Partly Cloudy 3400 ft,
Mostly Cloudy 4400 ft
EGAC 241920Z 29010KT 250V320 9999 -RA SCT034 BKN044 08/05 Q1029
EGAA - Belfast/Aldergro, United Kingdom
Distance from station: WNW 71 mi
Updated: 24-03-2019 19:20
Light Showers, Rain, Partly Cloudy  
Light Showers, Rain, Partly Cloudy  
   Wind: WNW 13.8 mph
Wind: WNW 13.8 mph
Temperature: 7°C
Wind Chill: 3°C
Dew Point: 4°C
Humidity: 81%
Barometer: 1029 hPa
Clouds: Partly Cloudy
Visibility: More than 6 mi
Cloud details: Few Clouds 2100 ft,
Partly Cloudy 3000 ft
EGAA 241920Z 29012KT 9999 -SHRA FEW021 SCT030 07/04 Q1029
EGNH - Blackpool Airpor, United Kingdom
Distance from station: ESE 73 mi
Updated: 24-03-2019 18:50
Partly Cloudy  
Partly Cloudy  
   Wind: West 18.4 mph
Wind: West 18.4 mph
Temperature: 8°C
Wind Chill: 4°C
Dew Point: 6°C
Humidity: 87%
Barometer: 1028 hPa
Clouds: Partly Cloudy
Visibility: More than 6 mi
Cloud details: Partly Cloudy 2600 ft
EGNH 241850Z 27016KT 9999 SCT026 08/06 Q1028
EGOV - Valley Raf, United Kingdom
Distance from station: S 73 mi
Updated: 24-03-2019 18:50
Few Clouds  
Few Clouds  
   Wind: WNW 12.7 mph
Wind: WNW 12.7 mph
Temperature: 9°C
Wind Chill: 6°C
Dew Point: 5°C
Humidity: 76%
Barometer: 1030 hPa
Clouds: Few Clouds
Visibility: More than 6 mi
Cloud details: Few Clouds 5000 ft
EGOV 241850Z AUTO 29011KT 9999 FEW050/// 09/05 Q1030
EGNC - Carlisle, United Kingdom
Distance from station: ENE 81 mi
Updated: 12-10-2018 14:50
NOT Current
Light Showers, Rain, Overcast  
Light Showers, Rain, Overcast  
   Wind: South 20.7 mph<br />Gust to 20.7 mph
Wind: South 20.7 mph
Gust to 20.7 mph
Temperature: 16°C
Dew Point: 14°C
Humidity: 88%
Barometer: 992 hPa
Clouds: Overcast
Visibility: 3 mi
Cloud details: Partly Cloudy 1000 ft,
Overcast 1600 ft
EGNC 121350Z 18018G33KT 140V220 5000 -SHRA SCT010 OVC016 16/14 Q0992
EGPK - Prestwick(Civ/Na, United Kingdom
Distance from station: N 82 mi
Updated: 24-03-2019 19:20
Mostly Cloudy  
Mostly Cloudy  
   Wind: WNW 21.9 mph
Wind: WNW 21.9 mph
Temperature: 7°C
Wind Chill: 2°C
Dew Point: 3°C
Humidity: 76%
Barometer: 1026 hPa
Clouds: Mostly Cloudy
Visibility: More than 6 mi
Cloud details: Partly Cloudy 1200 ft,
Mostly Cloudy 3000 ft
EGPK 241920Z 29019KT 9999 SCT012 BKN030 07/03 Q1026
EIDW - Dublin Airport, Ireland
Distance from station: SW 93 mi
Updated: 24-03-2019 19:00
Mostly Cloudy  
Mostly Cloudy  
   Wind: West 16.1 mph
Wind: West 16.1 mph
Temperature: 9°C
Wind Chill: 6°C
Dew Point: 3°C
Humidity: 66%
Barometer: 1031 hPa
Clouds: Mostly Cloudy
Visibility: More than 6 mi
Cloud details: Few Clouds 1900 ft,
Mostly Cloudy 4300 ft
EIDW 241900Z 28014KT 9999 FEW019 BKN043 09/03 Q1031 NOSIG
EGGP - Liverpool Airpor, United Kingdom
Distance from station: SE 98 mi
Updated: 24-03-2019 19:20
Nearby Showers, Partly Cloudy  
Nearby Showers, Partly Cloudy  
   Wind: West 18.4 mph
Wind: West 18.4 mph
Temperature: 9°C
Wind Chill: 6°C
Dew Point: 5°C
Humidity: 76%
Barometer: 1029 hPa
Clouds: Partly Cloudy
Visibility: More than 6 mi
Cloud details: Few Clouds 2700 ft,
Partly Cloudy 4300 ft
EGGP 241920Z 28016KT 9999 VCSH FEW027 SCT043 09/05 Q1029
EGPF - Glasgow Airport, United Kingdom
Distance from station: N 107 mi
Updated: 24-03-2019 19:20
Partly Cloudy  
Partly Cloudy  
   Wind: West 9.2 mph
Wind: West 9.2 mph
Temperature: 6°C
Wind Chill: 3°C
Dew Point: 2°C
Humidity: 76%
Barometer: 1025 hPa
Clouds: Partly Cloudy
Visibility: More than 6 mi
Cloud details: Partly Cloudy 3000 ft,
Partly Cloudy 3800 ft
EGPF 241920Z 28008KT 240V320 9999 SCT030 SCT038 06/02 Q1025
EGCC - Manchester Intl, United Kingdom
Distance from station: SE 114 mi
Updated: 24-03-2019 19:20
Overcast  
Overcast  
   Wind: West 17.3 mph
Wind: West 17.3 mph
Temperature: 8°C
Wind Chill: 4°C
Dew Point: 5°C
Humidity: 82%
Barometer: 1028 hPa
Clouds: Overcast
Visibility: More than 6 mi
Cloud details: Mostly Cloudy 2200 ft,
Mostly Cloudy 3200 ft,
Overcast 4000 ft
EGCC 241920Z AUTO 27015KT 9999 BKN022 BKN032 OVC040 08/05 Q1028
EGNM - Leeds And Bradfo, United Kingdom
Distance from station: ESE 122 mi
Updated: 24-03-2019 19:20
Partly Cloudy  
Partly Cloudy  
   Wind: West 23 mph<br />Gust to 23 mph
Wind: West 23 mph
Gust to 23 mph
Temperature: 7°C
Wind Chill: 2°C
Dew Point: 3°C
Humidity: 76%
Barometer: 1025 hPa
Clouds: Partly Cloudy
Visibility: More than 6 mi
Cloud details: Partly Cloudy 2400 ft
EGNM 241920Z 28020G30KT 9999 SCT024 07/03 Q1025

Script developed by  Saratoga-weather.org Adapted for the template by  Weerstation Leuven

You find our weather info also at:

UK Metoffice

WeatherCloud

WeatherlinkIP

Equipment we use:

Weather-station
Davis VP2

Weather-program
Weather Display

Weather-server
My Computer

Provider
Fasthosts

Davis VP2

Weather Display

My Computer

Fasthosts

 Banner1
iom-flag.gif  iom-flag.gif
Flag Counter 

Hits since site created in 2003